sensor_id;sensor_type;location;lat;lon;timestamp;pressure;altitude;pressure_sealevel;temperature;humidity
67697;BME280;54486;51.442;6.778;2023-04-07T00:01:40;101191.25;;;8.63;100.00
67697;BME280;54486;51.442;6.778;2023-04-07T00:04:08;101194.72;;;8.65;100.00
67697;BME280;54486;51.442;6.778;2023-04-07T00:06:36;101193.03;;;8.67;100.00
67697;BME280;54486;51.442;6.778;2023-04-07T00:09:04;101190.41;;;8.64;100.00
67697;BME280;54486;51.442;6.778;2023-04-07T00:11:31;101187.81;;;8.64;100.00
67697;BME280;54486;51.442;6.778;2023-04-07T00:13:58;101189.50;;;8.62;100.00
67697;BME280;54486;51.442;6.778;2023-04-07T00:16:25;101197.31;;;8.61;100.00
67697;BME280;54486;51.442;6.778;2023-04-07T00:18:52;101191.22;;;8.57;100.00
67697;BME280;54486;51.442;6.778;2023-04-07T00:21:20;101185.16;;;8.60;100.00
67697;BME280;54486;51.442;6.778;2023-04-07T00:23:47;101191.19;;;8.54;100.00
67697;BME280;54486;51.442;6.778;2023-04-07T00:26:14;101193.81;;;8.54;100.00
67697;BME280;54486;51.442;6.778;2023-04-07T00:28:41;101190.31;;;8.54;100.00
67697;BME280;54486;51.442;6.778;2023-04-07T00:31:08;101189.50;;;8.59;100.00
67697;BME280;54486;51.442;6.778;2023-04-07T00:33:35;101191.22;;;8.57;100.00
67697;BME280;54486;51.442;6.778;2023-04-07T00:36:02;101196.44;;;8.60;100.00
67697;BME280;54486;51.442;6.778;2023-04-07T00:38:30;101192.97;;;8.58;100.00
67697;BME280;54486;51.442;6.778;2023-04-07T00:40:57;101196.41;;;8.54;100.00
67697;BME280;54486;51.442;6.778;2023-04-07T00:43:25;101195.56;;;8.58;100.00
67697;BME280;54486;51.442;6.778;2023-04-07T00:45:53;101197.25;;;8.52;100.00
67697;BME280;54486;51.442;6.778;2023-04-07T00:48:20;101187.66;;;8.46;100.00
67697;BME280;54486;51.442;6.778;2023-04-07T00:50:48;101187.66;;;8.46;100.00
67697;BME280;54486;51.442;6.778;2023-04-07T00:53:15;101184.22;;;8.47;100.00
67697;BME280;54486;51.442;6.778;2023-04-07T00:55:43;101185.09;;;8.52;100.00
67697;BME280;54486;51.442;6.778;2023-04-07T00:58:11;101183.38;;;8.52;100.00
67697;BME280;54486;51.442;6.778;2023-04-07T01:00:49;101175.63;;;8.57;100.00
67697;BME280;54486;51.442;6.778;2023-04-07T01:03:24;101181.72;;;8.61;100.00
67697;BME280;54486;51.442;6.778;2023-04-07T01:05:59;101180.81;;;8.57;100.00
67697;BME280;54486;51.442;6.778;2023-04-07T01:11:07;101177.44;;;8.70;100.00
67697;BME280;54486;51.442;6.778;2023-04-07T01:13:48;101184.38;;;8.71;100.00
67697;BME280;54486;51.442;6.778;2023-04-07T01:16:22;101172.25;;;8.73;100.00
67697;BME280;54486;51.442;6.778;2023-04-07T01:21:55;101183.53;;;8.71;100.00
67697;BME280;54486;51.442;6.778;2023-04-07T01:30:09;101172.28;;;8.76;100.00
67697;BME280;54486;51.442;6.778;2023-04-07T01:32:39;101165.38;;;8.84;100.00
67697;BME280;54486;51.442;6.778;2023-04-07T01:35:11;101173.22;;;8.89;100.00
67697;BME280;54486;51.442;6.778;2023-04-07T01:37:39;101173.22;;;8.90;100.00
67697;BME280;54486;51.442;6.778;2023-04-07T01:40:08;101175.78;;;8.84;100.00
67697;BME280;54486;51.442;6.778;2023-04-07T01:42:38;101172.31;;;8.85;100.00
67697;BME280;54486;51.442;6.778;2023-04-07T01:45:07;101168.91;;;8.89;100.00
67697;BME280;54486;51.442;6.778;2023-04-07T01:47:36;101170.63;;;8.93;100.00
67697;BME280;54486;51.442;6.778;2023-04-07T01:50:04;101171.53;;;8.95;100.00
67697;BME280;54486;51.442;6.778;2023-04-07T01:52:33;101167.19;;;9.00;100.00
67697;BME280;54486;51.442;6.778;2023-04-07T01:55:03;101181.94;;;9.00;100.00
67697;BME280;54486;51.442;6.778;2023-04-07T01:57:30;101170.69;;;8.99;100.00
67697;BME280;54486;51.442;6.778;2023-04-07T01:59:58;101168.97;;;9.01;100.00
67697;BME280;54486;51.442;6.778;2023-04-07T02:02:25;101172.41;;;9.03;100.00
67697;BME280;54486;51.442;6.778;2023-04-07T02:07:26;101172.41;;;9.00;100.00
67697;BME280;54486;51.442;6.778;2023-04-07T02:09:58;101174.16;;;9.01;100.00
67697;BME280;54486;51.442;6.778;2023-04-07T02:12:27;101178.47;;;8.96;100.00
67697;BME280;54486;51.442;6.778;2023-04-07T02:14:56;101175.94;;;9.09;100.00
67697;BME280;54486;51.442;6.778;2023-04-07T02:17:26;101173.31;;;9.07;100.00
67697;BME280;54486;51.442;6.778;2023-04-07T02:19:54;101178.53;;;9.06;100.00
67697;BME280;54486;51.442;6.778;2023-04-07T02:22:23;101175.03;;;9.07;100.00
67697;BME280;54486;51.442;6.778;2023-04-07T02:24:52;101177.63;;;9.00;100.00
67697;BME280;54486;51.442;6.778;2023-04-07T02:27:19;101170.69;;;9.02;100.00
67697;BME280;54486;51.442;6.778;2023-04-07T02:29:47;101175.91;;;8.99;100.00
67697;BME280;54486;51.442;6.778;2023-04-07T02:32:14;101181.13;;;9.02;100.00
67697;BME280;54486;51.442;6.778;2023-04-07T02:34:42;101177.63;;;9.00;100.00
67697;BME280;54486;51.442;6.778;2023-04-07T02:37:09;101172.41;;;8.97;100.00
67697;BME280;54486;51.442;6.778;2023-04-07T02:39:36;101177.63;;;9.00;100.00
67697;BME280;54486;51.442;6.778;2023-04-07T02:42:02;101183.72;;;9.07;100.00
67697;BME280;54486;51.442;6.778;2023-04-07T02:44:29;101177.59;;;8.97;100.00
67697;BME280;54486;51.442;6.778;2023-04-07T02:46:57;101180.25;;;9.05;100.00
67697;BME280;54486;51.442;6.778;2023-04-07T02:49:24;101184.59;;;9.04;100.00
67697;BME280;54486;51.442;6.778;2023-04-07T02:51:52;101181.09;;;8.99;100.00
67697;BME280;54486;51.442;6.778;2023-04-07T02:54:19;101177.63;;;9.03;100.00
67697;BME280;54486;51.442;6.778;2023-04-07T02:56:46;101185.44;;;9.03;100.00
67697;BME280;54486;51.442;6.778;2023-04-07T02:59:13;101177.59;;;8.97;100.00
67697;BME280;54486;51.442;6.778;2023-04-07T03:01:40;101183.69;;;8.96;100.00
67697;BME280;54486;51.442;6.778;2023-04-07T03:04:08;101188.03;;;9.03;100.00
67697;BME280;54486;51.442;6.778;2023-04-07T03:06:35;101193.22;;;9.00;100.00
67697;BME280;54486;51.442;6.778;2023-04-07T03:09:03;101188.03;;;9.00;100.00
67697;BME280;54486;51.442;6.778;2023-04-07T03:11:30;101189.75;;;8.98;100.00
67697;BME280;54486;51.442;6.778;2023-04-07T03:13:57;101187.19;;;9.08;100.00
67697;BME280;54486;51.442;6.778;2023-04-07T03:16:24;101189.81;;;9.08;100.00
67697;BME280;54486;51.442;6.778;2023-04-07T03:18:52;101188.06;;;9.07;100.00
67697;BME280;54486;51.442;6.778;2023-04-07T03:21:18;101188.97;;;9.12;100.00
67697;BME280;54486;51.442;6.778;2023-04-07T03:23:45;101200.16;;;8.95;100.00
67697;BME280;54486;51.442;6.778;2023-04-07T03:26:12;101189.75;;;8.98;100.00
67697;BME280;54486;51.442;6.778;2023-04-07T03:28:39;101194.06;;;8.95;100.00
67697;BME280;54486;51.442;6.778;2023-04-07T03:31:06;101191.47;;;8.95;100.00
67697;BME280;54486;51.442;6.778;2023-04-07T03:33:34;101195.03;;;9.06;100.00
67697;BME280;54486;51.442;6.778;2023-04-07T03:36:01;101194.97;;;8.98;100.00
67697;BME280;54486;51.442;6.778;2023-04-07T03:38:28;101194.97;;;8.98;100.00
67697;BME280;54486;51.442;6.778;2023-04-07T03:40:55;101193.22;;;8.97;100.00
67697;BME280;54486;51.442;6.778;2023-04-07T03:43:23;101205.34;;;8.92;100.00
67697;BME280;54486;51.442;6.778;2023-04-07T03:45:52;101188.81;;;8.83;100.00
67697;BME280;54486;51.442;6.778;2023-04-07T03:48:19;101208.75;;;8.82;100.00
67697;BME280;54486;51.442;6.778;2023-04-07T03:50:46;101202.66;;;8.82;100.00
67697;BME280;54486;51.442;6.778;2023-04-07T03:53:13;101201.75;;;8.78;100.00
67697;BME280;54486;51.442;6.778;2023-04-07T03:55:42;101206.13;;;8.81;100.00
67697;BME280;54486;51.442;6.778;2023-04-07T03:58:09;101200.97;;;8.87;100.00
67697;BME280;54486;51.442;6.778;2023-04-07T04:00:37;101203.59;;;8.91;100.00
67697;BME280;54486;51.442;6.778;2023-04-07T04:03:04;101205.31;;;8.86;100.00
67697;BME280;54486;51.442;6.778;2023-04-07T04:05:31;101207.03;;;8.90;100.00
67697;BME280;54486;51.442;6.778;2023-04-07T04:07:58;101208.75;;;8.85;100.00
67697;BME280;54486;51.442;6.778;2023-04-07T04:10:25;101213.09;;;8.83;100.00
67697;BME280;54486;51.442;6.778;2023-04-07T04:12:53;101217.41;;;8.81;100.00
67697;BME280;54486;51.442;6.778;2023-04-07T04:15:20;101213.94;;;8.82;100.00
67697;BME280;54486;51.442;6.778;2023-04-07T04:17:47;101219.16;;;8.82;100.00
67697;BME280;54486;51.442;6.778;2023-04-07T04:20:14;101221.72;;;8.76;100.00
67697;BME280;54486;51.442;6.778;2023-04-07T04:22:41;101220.88;;;8.77;100.00
67697;BME280;54486;51.442;6.778;2023-04-07T04:25:09;101224.38;;;8.88;100.00
67697;BME280;54486;51.442;6.778;2023-04-07T04:27:35;101233.91;;;8.85;100.00
67697;BME280;54486;51.442;6.778;2023-04-07T04:30:03;101227.78;;;8.78;100.00
67697;BME280;54486;51.442;6.778;2023-04-07T04:32:30;101231.22;;;8.74;100.00
67697;BME280;54486;51.442;6.778;2023-04-07T04:34:59;101231.28;;;8.77;100.00
67697;BME280;54486;51.442;6.778;2023-04-07T04:37:27;101240.78;;;8.74;100.00
67697;BME280;54486;51.442;6.778;2023-04-07T04:39:54;101234.69;;;8.73;100.00
67697;BME280;54486;51.442;6.778;2023-04-07T04:42:21;101238.09;;;8.66;100.00
67697;BME280;54486;51.442;6.778;2023-04-07T04:44:48;101239.84;;;8.64;100.00
67697;BME280;54486;51.442;6.778;2023-04-07T04:47:16;101245.94;;;8.68;100.00
67697;BME280;54486;51.442;6.778;2023-04-07T04:49:43;101240.75;;;8.68;100.00
67697;BME280;54486;51.442;6.778;2023-04-07T04:52:10;101246.78;;;8.68;100.00
67697;BME280;54486;51.442;6.778;2023-04-07T04:54:37;101248.50;;;8.63;100.00
67697;BME280;54486;51.442;6.778;2023-04-07T04:57:04;101244.16;;;8.65;100.00
67697;BME280;54486;51.442;6.778;2023-04-07T04:59:31;101248.53;;;8.69;100.00
67697;BME280;54486;51.442;6.778;2023-04-07T05:01:58;101258.06;;;8.67;100.00
67697;BME280;54486;51.442;6.778;2023-04-07T05:04:25;101260.69;;;8.67;100.00
67697;BME280;54486;51.442;6.778;2023-04-07T05:06:55;101258.91;;;8.63;100.00
67697;BME280;54486;51.442;6.778;2023-04-07T05:09:22;101262.38;;;8.68;100.00
67697;BME280;54486;51.442;6.778;2023-04-07T05:11:49;101266.72;;;8.66;100.00
67697;BME280;54486;51.442;6.778;2023-04-07T05:14:16;101269.34;;;8.69;100.00
67697;BME280;54486;51.442;6.778;2023-04-07T05:16:44;101270.19;;;8.67;100.00
67697;BME280;54486;51.442;6.778;2023-04-07T05:19:11;101274.44;;;8.57;100.00
67697;BME280;54486;51.442;6.778;2023-04-07T05:21:38;101271.00;;;8.58;100.00
67697;BME280;54486;51.442;6.778;2023-04-07T05:24:05;101272.69;;;8.56;100.00
67697;BME280;54486;51.442;6.778;2023-04-07T05:26:35;101277.06;;;8.59;100.00
67697;BME280;54486;51.442;6.778;2023-04-07T05:29:03;101278.84;;;8.66;100.00
67697;BME280;54486;51.442;6.778;2023-04-07T05:31:30;101274.44;;;8.57;100.00
67697;BME280;54486;51.442;6.778;2023-04-07T05:33:57;101274.44;;;8.57;100.00
67697;BME280;54486;51.442;6.778;2023-04-07T05:36:24;101272.69;;;8.56;100.00
67697;BME280;54486;51.442;6.778;2023-04-07T05:38:51;101281.44;;;8.61;100.00
67697;BME280;54486;51.442;6.778;2023-04-07T05:41:18;101277.94;;;8.59;100.00
67697;BME280;54486;51.442;6.778;2023-04-07T05:43:45;101284.84;;;8.57;100.00
67697;BME280;54486;51.442;6.778;2023-04-07T05:46:12;101284.00;;;8.58;100.00
67697;BME280;54486;51.442;6.778;2023-04-07T05:48:45;101290.03;;;8.54;100.00
67697;BME280;54486;51.442;6.778;2023-04-07T05:51:14;101286.63;;;8.61;100.00
67697;BME280;54486;51.442;6.778;2023-04-07T05:53:46;101289.22;;;8.58;100.00
67697;BME280;54486;51.442;6.778;2023-04-07T05:56:13;101292.75;;;8.66;100.00
67697;BME280;54486;51.442;6.778;2023-04-07T05:58:40;101291.88;;;8.64;100.00
67697;BME280;54486;51.442;6.778;2023-04-07T06:01:07;101290.13;;;8.66;100.00
67697;BME280;54486;51.442;6.778;2023-04-07T06:03:34;101301.38;;;8.62;100.00
67697;BME280;54486;51.442;6.778;2023-04-07T06:06:01;101306.56;;;8.62;100.00
67697;BME280;54486;51.442;6.778;2023-04-07T06:08:28;101298.75;;;8.61;100.00
67697;BME280;54486;51.442;6.778;2023-04-07T06:10:55;101312.63;;;8.60;100.00
67697;BME280;54486;51.442;6.778;2023-04-07T06:13:22;101320.41;;;8.57;100.00
67697;BME280;54486;51.442;6.778;2023-04-07T06:15:48;101323.06;;;8.61;100.00
67697;BME280;54486;51.442;6.778;2023-04-07T06:18:16;101316.91;;;8.56;100.00
67697;BME280;54486;51.442;6.778;2023-04-07T06:20:43;101307.41;;;8.58;100.00
67697;BME280;54486;51.442;6.778;2023-04-07T06:23:11;101319.63;;;8.68;100.00
67697;BME280;54486;51.442;6.778;2023-04-07T06:25:38;101316.19;;;8.72;100.00
67697;BME280;54486;51.442;6.778;2023-04-07T06:28:05;101322.28;;;8.74;100.00
67697;BME280;54486;51.442;6.778;2023-04-07T06:30:33;101318.81;;;8.71;100.00
67697;BME280;54486;51.442;6.778;2023-04-07T06:33:00;101323.13;;;8.70;100.00
67697;BME280;54486;51.442;6.778;2023-04-07T06:35:27;101319.75;;;8.80;100.00
67697;BME280;54486;51.442;6.778;2023-04-07T06:37:55;101324.97;;;8.80;100.00
67697;BME280;54486;51.442;6.778;2023-04-07T06:40:22;101324.88;;;8.74;100.00
67697;BME280;54486;51.442;6.778;2023-04-07T06:42:49;101330.03;;;8.68;100.00
67697;BME280;54486;51.442;6.778;2023-04-07T06:45:17;101328.28;;;8.64;100.00
67697;BME280;54486;51.442;6.778;2023-04-07T06:47:44;101333.50;;;8.67;100.00
67697;BME280;54486;51.442;6.778;2023-04-07T06:50:12;101338.75;;;8.70;100.00
67697;BME280;54486;51.442;6.778;2023-04-07T06:52:39;101336.22;;;8.81;100.00
67697;BME280;54486;51.442;6.778;2023-04-07T06:55:06;101338.00;;;8.85;100.00
67697;BME280;54486;51.442;6.778;2023-04-07T06:57:34;101335.41;;;8.83;100.00
67697;BME280;54486;51.442;6.778;2023-04-07T07:00:01;101333.69;;;8.88;100.00
67697;BME280;54486;51.442;6.778;2023-04-07T07:02:29;101346.81;;;9.03;100.00
67697;BME280;54486;51.442;6.778;2023-04-07T07:04:56;101345.94;;;9.01;100.00
67697;BME280;54486;51.442;6.778;2023-04-07T07:07:25;101349.44;;;9.07;100.00
67697;BME280;54486;51.442;6.778;2023-04-07T07:09:53;101355.56;;;9.13;100.00
67697;BME280;54486;51.442;6.778;2023-04-07T07:12:20;101351.19;;;9.04;100.00
67697;BME280;54486;51.442;6.778;2023-04-07T07:14:47;101348.50;;;8.97;100.00
67697;BME280;54486;51.442;6.778;2023-04-07T07:17:14;101353.75;;;9.03;100.00
67697;BME280;54486;51.442;6.778;2023-04-07T07:19:41;101345.97;;;9.04;100.00
67697;BME280;54486;51.442;6.778;2023-04-07T07:22:09;101352.97;;;9.09;100.00
67697;BME280;54486;51.442;6.778;2023-04-07T07:24:35;101358.13;;;9.02;100.00
67697;BME280;54486;51.442;6.778;2023-04-07T07:27:02;101357.19;;;8.96;100.00
67697;BME280;54486;51.442;6.778;2023-04-07T07:29:30;101362.41;;;9.00;100.00
67697;BME280;54486;51.442;6.778;2023-04-07T07:31:57;101363.28;;;8.96;100.00
67697;BME280;54486;51.442;6.778;2023-04-07T07:34:24;101359.78;;;8.97;100.00
67697;BME280;54486;51.442;6.778;2023-04-07T07:36:52;101368.50;;;8.99;100.00
67697;BME280;54486;51.442;6.778;2023-04-07T07:39:18;101368.53;;;9.02;100.00
67697;BME280;54486;51.442;6.778;2023-04-07T07:41:45;101376.34;;;9.07;100.00
67697;BME280;54486;51.442;6.778;2023-04-07T07:44:12;101371.19;;;9.09;100.00
67697;BME280;54486;51.442;6.778;2023-04-07T07:46:40;101376.41;;;9.12;100.00
67697;BME280;54486;51.442;6.778;2023-04-07T07:49:07;101377.25;;;9.09;100.00
67697;BME280;54486;51.442;6.778;2023-04-07T07:51:34;101384.22;;;9.12;100.00
67697;BME280;54486;51.442;6.778;2023-04-07T07:54:02;101385.06;;;9.11;100.00
67697;BME280;54486;51.442;6.778;2023-04-07T07:56:29;101389.44;;;9.15;100.00
67697;BME280;54486;51.442;6.778;2023-04-07T07:58:56;101390.34;;;9.20;100.00
67697;BME280;54486;51.442;6.778;2023-04-07T08:01:24;101389.41;;;9.09;100.00
67697;BME280;54486;51.442;6.778;2023-04-07T08:03:52;101393.69;;;9.02;100.00
67697;BME280;54486;51.442;6.778;2023-04-07T08:06:19;101391.03;;;9.00;100.00
67697;BME280;54486;51.442;6.778;2023-04-07T08:08:48;101387.56;;;9.00;100.00
67697;BME280;54486;51.442;6.778;2023-04-07T08:11:15;101392.75;;;8.95;100.00
67697;BME280;54486;51.442;6.778;2023-04-07T08:13:43;101396.16;;;8.91;100.00
67697;BME280;54486;51.442;6.778;2023-04-07T08:16:12;101397.94;;;8.92;100.00
67697;BME280;54486;51.442;6.778;2023-04-07T08:18:40;101400.50;;;8.91;100.00
67697;BME280;54486;51.442;6.778;2023-04-07T08:21:07;101403.19;;;8.98;100.00
67697;BME280;54486;51.442;6.778;2023-04-07T08:23:34;101399.63;;;8.90;100.00
67697;BME280;54486;51.442;6.778;2023-04-07T08:26:01;101409.22;;;8.93;100.00
67697;BME280;54486;51.442;6.778;2023-04-07T08:28:28;101405.72;;;8.91;100.00
67697;BME280;54486;51.442;6.778;2023-04-07T08:30:55;101410.13;;;8.96;100.00
67697;BME280;54486;51.442;6.778;2023-04-07T08:33:22;101412.81;;;9.10;100.00
67697;BME280;54486;51.442;6.778;2023-04-07T08:35:48;101415.41;;;9.06;100.00
67697;BME280;54486;51.442;6.778;2023-04-07T08:38:15;101424.09;;;9.08;100.00
67697;BME280;54486;51.442;6.778;2023-04-07T08:40:43;101430.22;;;9.14;100.00
67697;BME280;54486;51.442;6.778;2023-04-07T08:43:11;101423.22;;;9.07;100.00
67697;BME280;54486;51.442;6.778;2023-04-07T08:45:40;101425.06;;;9.16;100.00
67697;BME280;54486;51.442;6.778;2023-04-07T08:48:16;101425.91;;;9.15;100.00
67697;BME280;54486;51.442;6.778;2023-04-07T08:50:44;101424.94;;;9.05;100.00
67697;BME280;54486;51.442;6.778;2023-04-07T08:53:12;101431.03;;;9.06;100.00
67697;BME280;54486;51.442;6.778;2023-04-07T08:55:41;101433.56;;;9.01;100.00
67697;BME280;54486;51.442;6.778;2023-04-07T08:58:09;101433.63;;;9.06;100.00
67697;BME280;54486;51.442;6.778;2023-04-07T09:00:39;101438.81;;;9.04;100.00
67697;BME280;54486;51.442;6.778;2023-04-07T09:03:12;101444.03;;;9.06;100.00
67697;BME280;54486;51.442;6.778;2023-04-07T09:05:39;101448.34;;;9.03;100.00
67697;BME280;54486;51.442;6.778;2023-04-07T09:08:07;101449.16;;;8.96;100.00
67697;BME280;54486;51.442;6.778;2023-04-07T09:10:35;101450.94;;;9.02;100.00
67697;BME280;54486;51.442;6.778;2023-04-07T09:13:02;101449.22;;;9.02;100.00
67697;BME280;54486;51.442;6.778;2023-04-07T09:15:30;101455.34;;;9.11;100.00
67697;BME280;54486;51.442;6.778;2023-04-07T09:18:01;101448.41;;;9.13;100.00
67697;BME280;54486;51.442;6.778;2023-04-07T09:20:58;101452.78;;;9.12;100.00
67697;BME280;54486;51.442;6.778;2023-04-07T09:23:31;101457.16;;;9.18;100.00
67697;BME280;54486;51.442;6.778;2023-04-07T09:26:00;101455.47;;;9.21;100.00
67697;BME280;54486;51.442;6.778;2023-04-07T09:28:45;101458.09;;;9.26;100.00
67697;BME280;54486;51.442;6.778;2023-04-07T09:31:13;101457.25;;;9.27;100.00
67697;BME280;54486;51.442;6.778;2023-04-07T09:33:40;101464.25;;;9.34;100.00
67697;BME280;54486;51.442;6.778;2023-04-07T09:36:08;101455.53;;;9.32;100.00
67697;BME280;54486;51.442;6.778;2023-04-07T09:38:38;101453.06;;;9.45;100.00
67697;BME280;54486;51.442;6.778;2023-04-07T09:41:06;101452.19;;;9.45;100.00
67697;BME280;54486;51.442;6.778;2023-04-07T09:43:39;101455.72;;;9.50;100.00
67697;BME280;54486;51.442;6.778;2023-04-07T09:46:17;101459.22;;;9.55;100.00
67697;BME280;54486;51.442;6.778;2023-04-07T09:48:45;101459.16;;;9.49;100.00
67697;BME280;54486;51.442;6.778;2023-04-07T09:51:14;101457.44;;;9.51;100.00
67697;BME280;54486;51.442;6.778;2023-04-07T09:53:46;101463.63;;;9.65;100.00
67697;BME280;54486;51.442;6.778;2023-04-07T09:56:18;101459.28;;;9.64;100.00
67697;BME280;54486;51.442;6.778;2023-04-07T09:58:49;101468.81;;;9.64;100.00
67697;BME280;54486;51.442;6.778;2023-04-07T10:01:20;101466.19;;;9.59;100.00
67697;BME280;54486;51.442;6.778;2023-04-07T10:03:48;101468.00;;;9.66;100.00
67697;BME280;54486;51.442;6.778;2023-04-07T10:06:18;101462.81;;;9.72;100.00
67697;BME280;54486;51.442;6.778;2023-04-07T10:08:47;101468.06;;;9.80;100.00
67697;BME280;54486;51.442;6.778;2023-04-07T10:11:14;101466.38;;;9.86;100.00
67697;BME280;54486;51.442;6.778;2023-04-07T10:13:41;101464.69;;;9.91;100.00
67697;BME280;54486;51.442;6.778;2023-04-07T10:16:09;101473.34;;;9.84;100.00
67697;BME280;54486;51.442;6.778;2023-04-07T10:18:38;101475.91;;;9.83;100.00
67697;BME280;54486;51.442;6.778;2023-04-07T10:21:06;101468.03;;;9.72;100.00
67697;BME280;54486;51.442;6.778;2023-04-07T10:23:52;101483.78;;;9.87;100.00
67697;BME280;54486;51.442;6.778;2023-04-07T10:26:26;101488.06;;;9.78;100.00
67697;BME280;54486;51.442;6.778;2023-04-07T10:28:59;101482.84;;;9.78;100.00
67697;BME280;54486;51.442;6.778;2023-04-07T10:31:29;101484.59;;;9.80;100.00
67697;BME280;54486;51.442;6.778;2023-04-07T10:33:56;101486.41;;;9.90;100.00
67697;BME280;54486;51.442;6.778;2023-04-07T10:36:23;101483.78;;;9.87;100.00
67697;BME280;54486;51.442;6.778;2023-04-07T10:41:37;101495.91;;;9.82;100.00
67697;BME280;54486;51.442;6.778;2023-04-07T10:44:06;101497.63;;;9.83;100.00
67697;BME280;54486;51.442;6.778;2023-04-07T10:49:16;101502.91;;;9.92;100.00
67697;BME280;54486;51.442;6.778;2023-04-07T10:54:38;101499.44;;;9.90;100.00
67697;BME280;54486;51.442;6.778;2023-04-07T10:57:13;101502.88;;;9.86;100.00
67697;BME280;54486;51.442;6.778;2023-04-07T11:00:19;101499.47;;;9.96;100.00
67697;BME280;54486;51.442;6.778;2023-04-07T11:02:46;101497.78;;;9.98;100.00
67697;BME280;54486;51.442;6.778;2023-04-07T11:05:23;101503.88;;;10.03;100.00
67697;BME280;54486;51.442;6.778;2023-04-07T11:07:57;101503.03;;;10.04;100.00
67697;BME280;54486;51.442;6.778;2023-04-07T11:10:32;101504.00;;;10.19;100.00
67697;BME280;54486;51.442;6.778;2023-04-07T11:13:04;101496.28;;;10.37;100.00
67697;BME280;54486;51.442;6.778;2023-04-07T11:15:35;101508.50;;;10.53;97.93
67697;BME280;54486;51.442;6.778;2023-04-07T11:18:21;101499.84;;;10.63;95.96
67697;BME280;54486;51.442;6.778;2023-04-07T11:20:54;101504.25;;;10.76;96.04
67697;BME280;54486;51.442;6.778;2023-04-07T11:23:22;101501.75;;;11.06;97.30
67697;BME280;54486;51.442;6.778;2023-04-07T11:25:51;101504.38;;;11.23;96.04
67697;BME280;54486;51.442;6.778;2023-04-07T11:28:18;101505.22;;;11.08;94.56
67697;BME280;54486;51.442;6.778;2023-04-07T11:30:47;101504.38;;;11.06;94.16
67697;BME280;54486;51.442;6.778;2023-04-07T11:33:24;101502.53;;;10.75;94.40
67697;BME280;54486;51.442;6.778;2023-04-07T11:35:59;101512.06;;;10.67;95.54
67697;BME280;54486;51.442;6.778;2023-04-07T11:38:30;101518.13;;;10.66;95.59
67697;BME280;54486;51.442;6.778;2023-04-07T11:41:09;101510.31;;;10.69;95.77
67697;BME280;54486;51.442;6.778;2023-04-07T11:43:38;101519.06;;;10.74;94.45
67697;BME280;54486;51.442;6.778;2023-04-07T11:46:14;101512.06;;;10.70;95.47
67697;BME280;54486;51.442;6.778;2023-04-07T11:48:43;101515.59;;;10.75;96.05
67697;BME280;54486;51.442;6.778;2023-04-07T11:51:19;101521.66;;;10.74;94.29
67697;BME280;54486;51.442;6.778;2023-04-07T11:53:54;101519.06;;;10.74;94.53
67697;BME280;54486;51.442;6.778;2023-04-07T11:56:26;101521.69;;;10.80;93.71
67697;BME280;54486;51.442;6.778;2023-04-07T11:58:54;101526.84;;;10.65;94.64
67697;BME280;54486;51.442;6.778;2023-04-07T12:01:21;101528.69;;;10.84;94.39
67697;BME280;54486;51.442;6.778;2023-04-07T12:03:58;101538.31;;;11.00;93.95
67697;BME280;54486;51.442;6.778;2023-04-07T12:06:33;101542.59;;;10.83;93.35
67697;BME280;54486;51.442;6.778;2023-04-07T12:09:04;101546.94;;;10.81;95.44
67697;BME280;54486;51.442;6.778;2023-04-07T12:11:33;101550.38;;;10.71;96.14
67697;BME280;54486;51.442;6.778;2023-04-07T12:14:00;101548.63;;;10.76;96.34
67697;BME280;54486;51.442;6.778;2023-04-07T12:16:31;101552.06;;;10.63;96.81
67697;BME280;54486;51.442;6.778;2023-04-07T12:18:58;101551.22;;;10.66;96.46
67697;BME280;54486;51.442;6.778;2023-04-07T12:21:26;101550.25;;;10.48;98.29
67697;BME280;54486;51.442;6.778;2023-04-07T12:23:53;101553.72;;;10.46;98.86
67697;BME280;54486;51.442;6.778;2023-04-07T12:26:21;101558.06;;;10.50;98.81
67697;BME280;54486;51.442;6.778;2023-04-07T12:28:49;101559.78;;;10.42;100.00
67697;BME280;54486;51.442;6.778;2023-04-07T12:31:17;101557.19;;;10.45;100.00
67697;BME280;54486;51.442;6.778;2023-04-07T12:33:44;101562.44;;;10.51;100.00
67697;BME280;54486;51.442;6.778;2023-04-07T12:36:13;101567.69;;;10.57;100.00
67697;BME280;54486;51.442;6.778;2023-04-07T12:38:39;101567.69;;;10.60;100.00
67697;BME280;54486;51.442;6.778;2023-04-07T12:41:06;101567.72;;;10.63;100.00
67697;BME280;54486;51.442;6.778;2023-04-07T12:43:36;101562.53;;;10.71;100.00
67697;BME280;54486;51.442;6.778;2023-04-07T12:46:03;101572.09;;;10.67;100.00
67697;BME280;54486;51.442;6.778;2023-04-07T12:48:31;101567.75;;;10.72;100.00
67697;BME280;54486;51.442;6.778;2023-04-07T12:51:02;101565.13;;;10.65;100.00
67697;BME280;54486;51.442;6.778;2023-04-07T12:53:29;101579.03;;;10.59;100.00
67697;BME280;54486;51.442;6.778;2023-04-07T12:55:58;101579.91;;;10.61;100.00
67697;BME280;54486;51.442;6.778;2023-04-07T12:58:26;101579.91;;;10.61;100.00
67697;BME280;54486;51.442;6.778;2023-04-07T13:00:53;101576.47;;;10.71;100.00
67697;BME280;54486;51.442;6.778;2023-04-07T13:03:22;101578.22;;;10.74;100.00
67697;BME280;54486;51.442;6.778;2023-04-07T13:05:50;101573.03;;;10.81;99.65
67697;BME280;54486;51.442;6.778;2023-04-07T13:08:20;101575.66;;;10.78;100.00
67697;BME280;54486;51.442;6.778;2023-04-07T13:10:48;101585.19;;;10.79;99.48
67697;BME280;54486;51.442;6.778;2023-04-07T13:13:15;101578.34;;;10.99;97.70
67697;BME280;54486;51.442;6.778;2023-04-07T13:15:42;101579.19;;;11.01;97.63
67697;BME280;54486;51.442;6.778;2023-04-07T13:18:09;101569.66;;;11.09;98.15
67697;BME280;54486;51.442;6.778;2023-04-07T13:20:36;101576.69;;;11.26;97.90